createdAt,value
2022-11-10T00:00:09.302Z,100251.49
2022-11-10T00:03:06.236Z,100256.33
2022-11-10T00:05:38.178Z,100251.45
2022-11-10T00:08:08.859Z,100257.30
2022-11-10T00:10:57.458Z,100257.98
2022-11-10T00:13:32.211Z,100254.53
2022-11-10T00:16:21.698Z,100250.89
2022-11-10T00:18:50.958Z,100247.46
2022-11-10T00:21:19.397Z,100250.42
2022-11-10T00:23:50.294Z,100251.10
2022-11-10T00:26:20.390Z,100256.45
2022-11-10T00:28:48.760Z,100260.08
2022-11-10T00:31:17.693Z,100259.73
2022-11-10T00:33:46.070Z,100261.46
2022-11-10T00:36:14.416Z,100261.27
2022-11-10T00:38:42.761Z,100269.50
2022-11-10T00:41:14.860Z,100267.89
2022-11-10T00:43:43.225Z,100266.27
2022-11-10T00:46:11.782Z,100269.55
2022-11-10T00:48:40.490Z,100271.10
2022-11-10T00:51:15.660Z,100275.23
2022-11-10T00:53:44.040Z,100272.55
2022-11-10T00:56:12.433Z,100271.98
2022-11-10T00:58:41.064Z,100272.85
2022-11-10T01:01:11.193Z,100272.83
2022-11-10T01:03:39.901Z,100276.23
2022-11-10T01:06:10.360Z,100278.45
2022-11-10T01:08:40.102Z,100278.95
2022-11-10T01:11:19.640Z,100279.12
2022-11-10T01:13:50.671Z,100281.86
2022-11-10T01:16:25.400Z,100282.73
2022-11-10T01:18:56.435Z,100284.13
2022-11-10T01:21:26.276Z,100283.05
2022-11-10T01:23:55.320Z,100285.25
2022-11-10T01:26:24.746Z,100283.73
2022-11-10T01:28:53.204Z,100284.20
2022-11-10T01:31:23.019Z,100283.45
2022-11-10T01:33:51.399Z,100278.17
2022-11-10T01:36:19.823Z,100281.27
2022-11-10T01:38:48.116Z,100284.83
2022-11-10T01:41:20.878Z,100281.73
2022-11-10T01:43:49.575Z,100286.95
2022-11-10T01:46:17.915Z,100291.97
2022-11-10T01:48:50.735Z,100290.71
2022-11-10T01:51:25.061Z,100293.60
2022-11-10T01:53:59.000Z,100292.39
2022-11-10T01:56:29.146Z,100297.63
2022-11-10T01:59:03.679Z,100297.91
2022-11-10T02:01:32.051Z,100296.97
2022-11-10T02:04:04.150Z,100295.63
2022-11-10T02:06:42.643Z,100301.71
2022-11-10T02:09:11.996Z,100298.80
2022-11-10T02:11:42.382Z,100301.25
2022-11-10T02:14:12.416Z,100306.66
2022-11-10T02:16:42.723Z,100306.16
2022-11-10T02:19:21.422Z,100307.55
2022-11-10T02:21:49.739Z,100308.01
2022-11-10T02:24:18.229Z,100311.93
2022-11-10T02:26:54.784Z,100311.30
2022-11-10T02:29:24.498Z,100317.80
2022-11-10T02:31:52.961Z,100320.34
2022-11-10T02:34:21.270Z,100320.59
2022-11-10T02:36:49.623Z,100320.92
2022-11-10T02:39:18.081Z,100321.38
2022-11-10T02:42:24.326Z,100325.70
2022-11-10T02:44:52.889Z,100324.38
2022-11-10T02:47:21.331Z,100325.58
2022-11-10T02:49:49.746Z,100327.15
2022-11-10T02:52:18.130Z,100325.23
2022-11-10T02:54:46.498Z,100321.89
2022-11-10T02:57:14.919Z,100325.85
2022-11-10T02:59:43.300Z,100333.07
2022-11-10T03:02:11.709Z,100332.73
2022-11-10T03:04:39.974Z,100332.94
2022-11-10T03:07:08.382Z,100337.80
2022-11-10T03:09:36.676Z,100337.80
2022-11-10T03:12:05.170Z,100346.66
2022-11-10T03:14:33.500Z,100352.96
2022-11-10T03:17:01.868Z,100352.27
2022-11-10T03:19:30.215Z,100350.58
2022-11-10T03:21:58.604Z,100352.84
2022-11-10T03:24:27.079Z,100358.52
2022-11-10T03:26:55.401Z,100358.72
2022-11-10T03:29:23.853Z,100367.20
2022-11-10T03:31:52.155Z,100375.54
2022-11-10T03:34:20.543Z,100368.52
2022-11-10T03:36:48.887Z,100365.77
2022-11-10T03:39:17.281Z,100370.78
2022-11-10T03:41:52.491Z,100369.39
2022-11-10T03:44:20.897Z,100367.30
2022-11-10T03:46:51.735Z,100372.89
2022-11-10T03:49:20.411Z,100372.90
2022-11-10T03:51:48.737Z,100376.08
2022-11-10T03:54:17.104Z,100379.85
2022-11-10T03:56:45.451Z,100381.11
2022-11-10T03:59:13.913Z,100379.04
2022-11-10T04:01:42.404Z,100381.98
2022-11-10T04:04:31.426Z,100383.67
2022-11-10T04:07:18.719Z,100383.55
2022-11-10T04:09:47.054Z,100385.34
2022-11-10T04:12:34.195Z,100386.05
2022-11-10T04:15:21.940Z,100380.23
2022-11-10T04:17:51.253Z,100388.24
2022-11-10T04:20:19.649Z,100389.27
2022-11-10T04:23:06.817Z,100398.66
2022-11-10T04:25:55.075Z,100401.48
2022-11-10T04:28:23.478Z,100406.73
2022-11-10T04:30:51.816Z,100406.23
2022-11-10T04:33:20.406Z,100415.34
2022-11-10T04:35:49.078Z,100415.45
2022-11-10T04:38:18.122Z,100418.40
2022-11-10T04:40:46.525Z,100415.16
2022-11-10T04:43:14.905Z,100419.09
2022-11-10T04:45:44.223Z,100420.30
2022-11-10T04:48:12.703Z,100426.77
2022-11-10T04:50:41.032Z,100431.98
2022-11-10T04:53:09.901Z,100433.02
2022-11-10T04:55:43.631Z,100431.32
2022-11-10T04:58:13.515Z,100433.95
2022-11-10T05:00:42.831Z,100440.00
2022-11-10T05:03:13.090Z,100442.59
2022-11-10T05:05:42.267Z,100439.80
2022-11-10T05:08:11.149Z,100443.36
2022-11-10T05:10:39.518Z,100445.23
2022-11-10T05:13:08.483Z,100449.18
2022-11-10T05:15:36.852Z,100452.45
2022-11-10T05:18:05.237Z,100452.84
2022-11-10T05:20:33.665Z,100454.56
2022-11-10T05:23:20.683Z,100453.81
2022-11-10T05:25:49.402Z,100464.95
2022-11-10T05:28:17.838Z,100465.95
2022-11-10T05:30:46.573Z,100465.48
2022-11-10T05:33:15.091Z,100470.13
2022-11-10T05:35:44.577Z,100474.79
2022-11-10T05:38:13.080Z,100476.62
2022-11-10T05:40:41.602Z,100477.38
2022-11-10T05:43:11.291Z,100482.27
2022-11-10T05:45:39.760Z,100483.88
2022-11-10T05:48:08.239Z,100491.53
2022-11-10T05:50:36.616Z,100498.57
2022-11-10T05:53:05.129Z,100503.15
2022-11-10T05:55:33.418Z,100504.45
2022-11-10T05:58:01.963Z,100511.97
2022-11-10T06:00:31.843Z,100516.88
2022-11-10T06:03:03.748Z,100528.35
2022-11-10T06:05:35.332Z,100530.59
2022-11-10T06:08:05.900Z,100536.65
2022-11-10T06:10:35.799Z,100537.45
2022-11-10T06:13:05.217Z,100544.05
2022-11-10T06:15:33.940Z,100540.24
2022-11-10T06:18:02.440Z,100542.78
2022-11-10T06:20:30.891Z,100549.02
2022-11-10T06:23:07.317Z,100552.83
2022-11-10T06:25:37.656Z,100557.94
2022-11-10T06:28:07.744Z,100560.16
2022-11-10T06:30:37.983Z,100564.73
2022-11-10T06:33:06.433Z,100570.30
2022-11-10T06:35:35.024Z,100573.28
2022-11-10T06:38:06.270Z,100578.39
2022-11-10T06:41:07.914Z,100578.80
2022-11-10T06:43:36.375Z,100587.66
2022-11-10T06:46:04.922Z,100591.80
2022-11-10T06:48:34.164Z,100595.29
2022-11-10T06:51:03.695Z,100598.33
2022-11-10T06:53:33.319Z,100603.58
2022-11-10T06:56:02.104Z,100609.58
2022-11-10T06:58:30.500Z,100613.77
2022-11-10T07:01:02.391Z,100621.58
2022-11-10T07:03:30.738Z,100624.36
2022-11-10T07:05:59.611Z,100627.39
2022-11-10T07:08:27.930Z,100634.45
2022-11-10T07:10:56.408Z,100635.63
2022-11-10T07:13:25.196Z,100643.09
2022-11-10T07:15:53.898Z,100648.35
2022-11-10T07:18:23.688Z,100654.66
2022-11-10T07:20:52.061Z,100657.05
2022-11-10T07:23:20.633Z,100665.90
2022-11-10T07:25:49.362Z,100671.39
2022-11-10T07:28:17.851Z,100676.35
2022-11-10T07:30:46.154Z,100680.94
2022-11-10T07:33:15.557Z,100692.84
2022-11-10T07:35:44.806Z,100700.48
2022-11-10T07:38:15.142Z,100706.02
2022-11-10T07:40:43.668Z,100702.07
2022-11-10T07:43:12.320Z,100700.66
2022-11-10T07:45:40.777Z,100704.01
2022-11-10T07:48:10.303Z,100712.98
2022-11-10T07:50:38.769Z,100719.95
2022-11-10T07:53:15.940Z,100722.20
2022-11-10T07:55:45.744Z,100726.52
2022-11-10T07:58:17.829Z,100732.34
2022-11-10T08:00:47.271Z,100738.48
2022-11-10T08:03:21.374Z,100737.51
2022-11-10T08:05:50.149Z,100732.48
2022-11-10T08:08:19.243Z,100736.92
2022-11-10T08:10:47.701Z,100737.86
2022-11-10T08:13:16.163Z,100741.25
2022-11-10T08:15:44.692Z,100741.52
2022-11-10T08:18:22.412Z,100747.55
2022-11-10T08:20:51.055Z,100747.48
2022-11-10T08:23:19.749Z,100751.67
2022-11-10T08:25:48.372Z,100754.65
2022-11-10T08:28:18.127Z,100761.58
2022-11-10T08:30:48.212Z,100767.22
2022-11-10T08:33:20.291Z,100770.21
2022-11-10T08:35:51.611Z,100773.00
2022-11-10T08:38:24.933Z,100777.14
2022-11-10T08:40:57.824Z,100778.74
2022-11-10T08:43:36.177Z,100782.25
2022-11-10T08:46:09.678Z,100788.90
2022-11-10T08:49:00.893Z,100790.17
2022-11-10T08:51:39.191Z,100797.48
2022-11-10T08:54:07.941Z,100799.36
2022-11-10T08:56:42.627Z,100808.10
2022-11-10T08:59:11.396Z,100807.81
2022-11-10T09:01:39.907Z,100813.23
2022-11-10T09:04:08.431Z,100817.77
2022-11-10T09:06:36.930Z,100826.34
2022-11-10T09:09:27.617Z,100827.02
2022-11-10T09:11:55.980Z,100828.98
2022-11-10T09:14:24.389Z,100829.30
2022-11-10T09:16:52.875Z,100826.70
2022-11-10T09:19:21.243Z,100835.14
2022-11-10T09:21:49.604Z,100835.61
2022-11-10T09:24:18.135Z,100841.16
2022-11-10T09:26:47.927Z,100845.15
2022-11-10T09:29:16.332Z,100850.95
2022-11-10T09:31:45.506Z,100860.10
2022-11-10T09:34:14.058Z,100859.05
2022-11-10T09:36:43.312Z,100857.08
2022-11-10T09:39:13.387Z,100858.89
2022-11-10T09:41:47.873Z,100857.42
2022-11-10T09:44:37.018Z,100860.95
2022-11-10T09:47:50.744Z,100862.45
2022-11-10T09:50:22.414Z,100863.75
2022-11-10T09:52:54.877Z,100865.76
2022-11-10T09:56:02.820Z,100871.27
2022-11-10T09:58:43.719Z,100873.67
2022-11-10T10:01:40.789Z,100877.86
2022-11-10T10:04:31.394Z,100884.78
2022-11-10T10:07:27.184Z,100883.33
2022-11-10T10:10:37.254Z,100881.34
2022-11-10T10:13:21.086Z,100880.03
2022-11-10T10:16:18.738Z,100890.63
2022-11-10T10:19:21.462Z,100891.15
2022-11-10T10:22:09.034Z,100891.23
2022-11-10T10:24:38.647Z,100891.36
2022-11-10T10:27:12.591Z,100892.67
2022-11-10T10:29:45.896Z,100891.27
2022-11-10T10:32:16.378Z,100893.74
2022-11-10T10:34:46.221Z,100894.37
2022-11-10T10:37:23.945Z,100896.60
2022-11-10T10:40:19.563Z,100892.01
2022-11-10T10:42:48.338Z,100897.81
2022-11-10T10:45:29.142Z,100901.52
2022-11-10T10:47:58.153Z,100906.01
2022-11-10T10:50:36.166Z,100902.92
2022-11-10T10:53:23.165Z,100900.23
2022-11-10T10:56:01.596Z,100903.79
2022-11-10T10:58:56.501Z,100902.39
2022-11-10T11:01:38.012Z,100901.81
2022-11-10T11:04:31.022Z,100898.92
2022-11-10T11:07:04.975Z,100898.23
2022-11-10T11:09:44.676Z,100904.89
2022-11-10T11:12:22.331Z,100908.73
2022-11-10T11:15:29.626Z,100913.38
2022-11-10T11:18:03.883Z,100919.61
2022-11-10T11:20:53.227Z,100921.19
2022-11-10T11:23:49.725Z,100925.05
2022-11-10T11:27:06.385Z,100924.50
2022-11-10T11:29:59.734Z,100931.42
2022-11-10T11:32:51.759Z,100930.69
2022-11-10T11:35:38.643Z,100936.27
2022-11-10T11:38:16.413Z,100937.89
2022-11-10T11:41:13.674Z,100934.73
2022-11-10T11:44:01.719Z,100937.10
2022-11-10T11:46:49.620Z,100935.52
2022-11-10T11:49:53.993Z,100938.63
2022-11-10T11:52:36.658Z,100937.89
2022-11-10T11:55:27.359Z,100934.13
2022-11-10T11:58:25.686Z,100940.10
2022-11-10T12:01:20.560Z,100944.97
2022-11-10T12:04:08.318Z,100946.22
2022-11-10T12:06:51.103Z,100953.73
2022-11-10T12:10:13.640Z,100951.78
2022-11-10T12:13:06.351Z,100954.16
2022-11-10T12:15:47.076Z,100956.22
2022-11-10T12:18:32.932Z,100959.48
2022-11-10T12:21:18.637Z,100958.16
2022-11-10T12:24:25.513Z,100960.60
2022-11-10T12:27:14.951Z,100961.25
2022-11-10T12:29:50.965Z,100961.00
2022-11-10T12:32:47.049Z,100963.15
2022-11-10T12:35:26.869Z,100963.80
2022-11-10T12:38:02.164Z,100966.63
2022-11-10T12:40:42.141Z,100969.23
2022-11-10T12:43:26.055Z,100970.70
2022-11-10T12:46:03.923Z,100977.81
2022-11-10T12:49:11.460Z,100981.64
2022-11-10T12:51:49.918Z,100984.78
2022-11-10T12:54:21.086Z,100989.77
2022-11-10T12:57:05.751Z,100993.08
2022-11-10T12:59:40.134Z,100996.88
2022-11-10T13:02:33.427Z,101004.23
2022-11-10T13:05:45.581Z,101009.92
2022-11-10T13:08:27.646Z,101014.92
2022-11-10T13:11:06.944Z,101017.41
2022-11-10T13:13:46.377Z,101010.52
2022-11-10T13:16:40.805Z,101015.92
2022-11-10T13:19:10.080Z,101021.69
2022-11-10T13:21:53.871Z,101024.29
2022-11-10T13:24:31.444Z,101019.96
2022-11-10T13:27:00.910Z,101028.08
2022-11-10T13:29:47.789Z,101028.26
2022-11-10T13:32:30.963Z,101035.12
2022-11-10T13:35:30.603Z,101034.42
2022-11-10T13:37:59.456Z,101036.81
2022-11-10T13:40:34.991Z,101038.85
2022-11-10T13:43:03.752Z,101048.06
2022-11-10T13:45:42.362Z,101046.34
2022-11-10T13:48:13.529Z,101046.97
2022-11-10T13:51:04.862Z,101048.28
2022-11-10T13:53:35.950Z,101044.19
2022-11-10T13:56:32.527Z,101049.95
2022-11-10T13:59:01.058Z,101055.54
2022-11-10T14:01:30.780Z,101063.05
2022-11-10T14:04:06.405Z,101062.39
2022-11-10T14:06:41.132Z,101066.04
2022-11-10T14:09:29.356Z,101071.96
2022-11-10T14:12:04.134Z,101071.41
2022-11-10T14:14:52.012Z,101079.98
2022-11-10T14:17:26.279Z,101080.60
2022-11-10T14:19:54.833Z,101084.83
2022-11-10T14:22:43.495Z,101088.34
2022-11-10T14:25:28.126Z,101093.13
2022-11-10T14:27:58.350Z,101096.98
2022-11-10T14:30:33.922Z,101101.68
2022-11-10T14:33:10.808Z,101101.31
2022-11-10T14:35:53.514Z,101105.85
2022-11-10T14:38:26.547Z,101109.89
2022-11-10T14:41:00.629Z,101118.98
2022-11-10T14:43:39.227Z,101119.05
2022-11-10T14:46:08.522Z,101121.23
2022-11-10T14:48:39.141Z,101122.02
2022-11-10T14:51:17.365Z,101123.98
2022-11-10T14:53:57.398Z,101127.88
2022-11-10T14:56:32.423Z,101129.50
2022-11-10T14:59:05.046Z,101131.44
2022-11-10T15:01:37.246Z,101130.61
2022-11-10T15:04:32.258Z,101133.17
2022-11-10T15:07:01.254Z,101135.06
2022-11-10T15:09:32.429Z,101137.25
2022-11-10T15:12:00.885Z,101141.86
2022-11-10T15:14:35.666Z,101143.02
2022-11-10T15:17:11.670Z,101152.69
2022-11-10T15:19:48.933Z,101164.48
2022-11-10T15:22:22.427Z,101167.90
2022-11-10T15:24:59.924Z,101171.49
2022-11-10T15:27:33.859Z,101171.48
2022-11-10T15:30:21.031Z,101179.65
2022-11-10T15:32:58.001Z,101189.23
2022-11-10T15:35:33.492Z,101195.20
2022-11-10T15:38:19.634Z,101197.64
2022-11-10T15:41:06.626Z,101203.30
2022-11-10T15:43:38.848Z,101209.99
2022-11-10T15:46:20.069Z,101215.34
2022-11-10T15:48:57.763Z,101218.31
2022-11-10T15:51:30.783Z,101222.26
2022-11-10T15:54:02.248Z,101226.13
2022-11-10T15:56:33.807Z,101234.50
2022-11-10T15:59:05.649Z,101242.98
2022-11-10T16:01:38.800Z,101245.23
2022-11-10T16:04:14.353Z,101245.78
2022-11-10T16:06:51.932Z,101243.80
2022-11-10T16:09:25.539Z,101242.56
2022-11-10T16:11:58.532Z,101244.48
2022-11-10T16:14:30.099Z,101250.95
2022-11-10T16:17:02.504Z,101257.79
2022-11-10T16:19:34.762Z,101261.56
2022-11-10T16:22:11.762Z,101264.78
2022-11-10T16:24:45.261Z,101264.33
2022-11-10T16:27:17.854Z,101273.66
2022-11-10T16:29:51.989Z,101281.53
2022-11-10T16:32:23.639Z,101282.14
2022-11-10T16:34:55.504Z,101286.76
2022-11-10T16:37:31.721Z,101288.02
2022-11-10T16:40:17.628Z,101289.94
2022-11-10T16:42:49.689Z,101292.90
2022-11-10T16:45:24.263Z,101291.02
2022-11-10T16:47:58.666Z,101289.92
2022-11-10T16:50:32.653Z,101291.38
2022-11-10T16:53:14.484Z,101288.36
2022-11-10T16:55:43.650Z,101291.77
2022-11-10T16:58:12.278Z,101291.95
2022-11-10T17:00:42.167Z,101292.00
2022-11-10T17:03:18.641Z,101293.19
2022-11-10T17:05:48.741Z,101298.21
2022-11-10T17:08:26.395Z,101298.39
2022-11-10T17:10:57.229Z,101296.11
2022-11-10T17:13:26.616Z,101301.38
2022-11-10T17:16:20.287Z,101299.84
2022-11-10T17:18:50.191Z,101304.52
2022-11-10T17:21:19.922Z,101305.08
2022-11-10T17:23:49.389Z,101302.81
2022-11-10T17:26:20.262Z,101302.38
2022-11-10T17:28:49.196Z,101306.27
2022-11-10T17:31:17.788Z,101305.96
2022-11-10T17:33:47.577Z,101307.11
2022-11-10T17:36:21.717Z,101313.08
2022-11-10T17:38:52.602Z,101320.83
2022-11-10T17:41:24.238Z,101323.73
2022-11-10T17:43:53.000Z,101328.55
2022-11-10T17:46:22.048Z,101330.45
2022-11-10T17:48:51.140Z,101334.41
2022-11-10T17:51:22.839Z,101333.36
2022-11-10T17:53:52.395Z,101337.34
2022-11-10T17:56:21.528Z,101346.34
2022-11-10T17:58:50.728Z,101345.81
2022-11-10T18:01:25.123Z,101344.60
2022-11-10T18:03:54.121Z,101344.95
2022-11-10T18:06:23.026Z,101353.13
2022-11-10T18:08:52.342Z,101358.52
2022-11-10T18:11:21.808Z,101357.85
2022-11-10T18:13:53.048Z,101360.15
2022-11-10T18:16:23.429Z,101367.83
2022-11-10T18:18:53.643Z,101374.43
2022-11-10T18:21:22.065Z,101377.16
2022-11-10T18:23:50.848Z,101375.42
2022-11-10T18:26:24.860Z,101377.35
2022-11-10T18:28:53.658Z,101376.52
2022-11-10T18:31:22.421Z,101380.34
2022-11-10T18:33:54.868Z,101386.30
2022-11-10T18:36:27.285Z,101387.77
2022-11-10T18:38:56.771Z,101388.39
2022-11-10T18:41:49.767Z,101396.77
2022-11-10T18:44:24.218Z,101398.02
2022-11-10T18:46:54.499Z,101399.58
2022-11-10T18:49:24.766Z,101399.60
2022-11-10T18:51:53.723Z,101394.62
2022-11-10T18:54:23.409Z,101381.64
2022-11-10T18:56:52.565Z,101377.38
2022-11-10T18:59:21.271Z,101379.52
2022-11-10T19:01:51.012Z,101376.64
2022-11-10T19:04:20.680Z,101385.58
2022-11-10T19:06:50.012Z,101387.54
2022-11-10T19:09:19.588Z,101389.48
2022-11-10T19:11:48.608Z,101393.02
2022-11-10T19:14:26.024Z,101392.20
2022-11-10T19:16:56.219Z,101394.84
2022-11-10T19:19:26.319Z,101398.17
2022-11-10T19:21:55.572Z,101399.09
2022-11-10T19:24:28.167Z,101397.23
2022-11-10T19:26:57.939Z,101396.58
2022-11-10T19:29:27.001Z,101399.10
2022-11-10T19:31:56.313Z,101396.62
2022-11-10T19:34:25.607Z,101401.79
2022-11-10T19:36:55.101Z,101404.02
2022-11-10T19:39:24.464Z,101406.20
2022-11-10T19:41:54.628Z,101407.52
2022-11-10T19:44:24.150Z,101409.23
2022-11-10T19:46:53.002Z,101412.25
2022-11-10T19:49:23.099Z,101413.21
2022-11-10T19:51:52.539Z,101411.98
2022-11-10T19:54:22.559Z,101408.35
2022-11-10T19:56:52.164Z,101412.62
2022-11-10T19:59:21.506Z,101411.83
2022-11-10T20:01:52.974Z,101412.92
2022-11-10T20:04:22.744Z,101412.65
2022-11-10T20:07:12.340Z,101417.36
2022-11-10T20:09:44.466Z,101425.70
2022-11-10T20:12:14.304Z,101425.05
2022-11-10T20:14:43.211Z,101427.36
2022-11-10T20:17:13.997Z,101429.11
2022-11-10T20:19:42.560Z,101426.22
2022-11-10T20:22:13.626Z,101428.05
2022-11-10T20:24:49.925Z,101433.55
2022-11-10T20:27:20.716Z,101439.64
2022-11-10T20:29:50.473Z,101444.39
2022-11-10T20:32:22.815Z,101451.43
2022-11-10T20:34:52.637Z,101449.95
2022-11-10T20:37:21.440Z,101450.20
2022-11-10T20:40:02.606Z,101451.83
2022-11-10T20:42:32.522Z,101447.10
2022-11-10T20:45:01.723Z,101441.81
2022-11-10T20:47:30.508Z,101435.51
2022-11-10T20:50:00.067Z,101430.75
2022-11-10T20:52:28.516Z,101430.98
2022-11-10T20:54:58.646Z,101431.39
2022-11-10T20:57:29.277Z,101431.60
2022-11-10T20:59:57.654Z,101438.20
2022-11-10T21:02:26.078Z,101434.40
2022-11-10T21:04:55.133Z,101432.89
2022-11-10T21:07:23.647Z,101435.15
2022-11-10T21:09:52.829Z,101438.45
2022-11-10T21:12:41.729Z,101442.45
2022-11-10T21:15:11.457Z,101450.17
2022-11-10T21:17:43.942Z,101449.60
2022-11-10T21:20:14.164Z,101452.34
2022-11-10T21:22:42.642Z,101450.58
2022-11-10T21:25:11.295Z,101454.69
2022-11-10T21:27:39.657Z,101455.19
2022-11-10T21:30:13.012Z,101452.22
2022-11-10T21:32:42.705Z,101454.98
2022-11-10T21:35:11.171Z,101461.06
2022-11-10T21:37:39.733Z,101462.60
2022-11-10T21:40:38.292Z,101463.46
2022-11-10T21:43:06.939Z,101460.36
2022-11-10T21:45:35.358Z,101460.19
2022-11-10T21:48:04.450Z,101463.27
2022-11-10T21:50:32.796Z,101467.08
2022-11-10T21:53:01.201Z,101464.67
2022-11-10T21:55:29.594Z,101470.77
2022-11-10T21:58:00.907Z,101473.54
2022-11-10T22:00:29.510Z,101472.98
2022-11-10T22:03:02.929Z,101482.30
2022-11-10T22:05:31.370Z,101483.52
2022-11-10T22:07:59.717Z,101488.35
2022-11-10T22:10:46.776Z,101491.46
2022-11-10T22:13:35.928Z,101501.32
2022-11-10T22:16:41.639Z,101501.80
2022-11-10T22:19:10.204Z,101508.00
2022-11-10T22:21:38.626Z,101509.34
2022-11-10T22:24:27.118Z,101510.51
2022-11-10T22:27:00.676Z,101511.84
2022-11-10T22:29:32.285Z,101508.34
2022-11-10T22:32:02.159Z,101514.21
2022-11-10T22:34:33.584Z,101518.70
2022-11-10T22:37:02.277Z,101523.17
2022-11-10T22:39:49.479Z,101524.22
2022-11-10T22:43:03.666Z,101527.64
2022-11-10T22:45:32.164Z,101524.80
2022-11-10T22:48:19.293Z,101528.36
2022-11-10T22:50:57.813Z,101533.48
2022-11-10T22:53:26.940Z,101528.38
2022-11-10T22:56:00.979Z,101532.11
2022-11-10T22:58:29.363Z,101533.95
2022-11-10T23:01:06.308Z,101532.88
2022-11-10T23:03:35.714Z,101529.71
2022-11-10T23:06:05.068Z,101531.05
2022-11-10T23:08:34.380Z,101530.48
2022-11-10T23:11:06.284Z,101526.29
2022-11-10T23:13:36.143Z,101529.19
2022-11-10T23:16:08.340Z,101527.60
2022-11-10T23:18:38.701Z,101527.88
2022-11-10T23:21:10.154Z,101527.30
2022-11-10T23:23:40.441Z,101525.20
2022-11-10T23:26:18.750Z,101528.94
2022-11-10T23:28:47.868Z,101527.16
2022-11-10T23:31:22.091Z,101521.59
2022-11-10T23:33:53.412Z,101518.96
2022-11-10T23:36:23.759Z,101515.98
2022-11-10T23:38:52.570Z,101518.52
2022-11-10T23:41:26.985Z,101514.84
2022-11-10T23:43:56.507Z,101516.67
2022-11-10T23:46:25.419Z,101518.90
2022-11-10T23:48:53.812Z,101522.30
2022-11-10T23:51:22.925Z,101523.63
2022-11-10T23:53:51.685Z,101526.52
2022-11-10T23:56:20.137Z,101534.83
2022-11-10T23:58:48.513Z,101541.54
